Terminal Aerodrome Forecast
Issued by NWS Jacksonville, FL

Home | Current Version | Previous Version | Text Only | Print | Product List | Glossary On
Versions: 1 2 3 4 5 6 7 8 9 10 11
000
FTUS42 KJAX 140520
TAFSSI
TAF
KSSI 140520Z 1406/1506 23006KT P6SM SCT250
     FM141400 24010KT P6SM BKN250
     FM150000 VRB03KT P6SM BKN250=

USA.gov is the U.S. government's official web portal to all federal, state and local government web resources and services.